Carbon Hill, Alabama
Current Conditions -  °F | °C
As of 5:15 PM on Tuesday 25 Nov 2014 (Local Time) from KJFX Reporting Station
Clear Clear  
Wind Chill: 50°   Ceiling: Unl
Heat Index: 50°   Visibility: 10mi
Dew Point: 32°   Wind: 6mph
Humidity: 50%   Direction: 300°WNW
Pressure: 30.13"   Gusts: NA
Location:  33.89°N, 87.53°W
Report Text: KJFX 252315Z AUTO 30005KT 10SM CLR 10/00 A3013 RMK A02 P-128
Loading
Personal Weather Stations






























Interactive Weather Map New forecast layout! Learn more

10-Day Weather Forecast

Advertisements
Track Severe Weather on mobile